Time;durP1;ratioP1;P1;durP2;ratioP2;P2;SDS_P1;SDS_P2;PMS_P1;PMS_P2;Temp;Humidity;BMP_temperature;BMP_pressure;BME280_temperature;BME280_humidity;BME280_pressure;Samples;Min_cycle;Max_cycle;Signal;HPM_P1;HPM_P2
2021/12/31 00:01:53;;;;;;;4.88;3.05;;;;;;;;;;5119964;27;20436;-84
2021/12/31 00:04:19;;;;;;;5.70;3.55;;;;;;;;;;5124309;27;20258;-83
2021/12/31 00:06:45;;;;;;;4.00;3.03;;;;;;;;;;5103373;28;20175;-83
2021/12/31 00:09:11;;;;;;;3.10;2.30;;;;;;;;;;5108527;28;20433;-83
2021/12/31 00:11:38;;;;;;;3.83;2.75;;;;;;;;;;5093253;28;20437;-84
2021/12/31 00:14:04;;;;;;;5.43;2.42;;;;;;;;;;5093384;28;20175;-83
2021/12/31 00:16:30;;;;;;;2.05;1.85;;;;;;;;;;5089710;28;20246;-84
2021/12/31 00:18:56;;;;;;;6.50;3.30;;;;;;;;;;5087583;28;20226;-84
2021/12/31 00:21:22;;;;;;;3.60;2.90;;;;;;;;;;5107030;28;20475;-84
2021/12/31 00:23:48;;;;;;;7.22;3.80;;;;;;;;;;5099813;28;20416;-84
2021/12/31 00:26:14;;;;;;;5.55;2.95;;;;;;;;;;5101361;28;20539;-84
2021/12/31 00:28:40;;;;;;;3.13;1.83;;;;;;;;;;5105150;28;20183;-84
2021/12/31 00:31:06;;;;;;;4.85;2.88;;;;;;;;;;5105158;28;20190;-84
2021/12/31 00:33:32;;;;;;;3.33;2.87;;;;;;;;;;5090915;28;20187;-84
2021/12/31 00:35:58;;;;;;;4.27;2.67;;;;;;;;;;5093046;28;20437;-84
2021/12/31 00:38:24;;;;;;;3.28;2.50;;;;;;;;;;5092763;28;20984;-84
2021/12/31 00:40:50;;;;;;;2.95;2.20;;;;;;;;;;5090096;28;20201;-84
2021/12/31 00:43:16;;;;;;;6.75;3.15;;;;;;;;;;5102575;28;20188;-84
2021/12/31 00:45:43;;;;;;;6.35;3.60;;;;;;;;;;5088217;28;20254;-84
2021/12/31 00:48:10;;;;;;;6.40;3.35;;;;;;;;;;5107725;28;20187;-84
2021/12/31 00:50:37;;;;;;;4.90;3.60;;;;;;;;;;5093205;28;20175;-84
2021/12/31 00:53:03;;;;;;;4.30;2.45;;;;;;;;;;5097435;28;20176;-84
2021/12/31 00:55:29;;;;;;;3.95;3.03;;;;;;;;;;5092645;28;20559;-84
2021/12/31 00:57:55;;;;;;;5.35;3.40;;;;;;;;;;5106261;28;20182;-84
2021/12/31 01:00:21;;;;;;;5.15;3.38;;;;;;;;;;5108120;28;20175;-84
2021/12/31 01:02:48;;;;;;;3.75;3.42;;;;;;;;;;5108515;28;20182;-85
2021/12/31 01:05:15;;;;;;;5.05;3.45;;;;;;;;;;5119014;28;20176;-84
2021/12/31 01:07:41;;;;;;;4.70;3.22;;;;;;;;;;5111846;28;20175;-85
2021/12/31 01:10:12;;;;;;;5.53;5.03;;;;;;;;;;5091642;28;20187;-85
2021/12/31 01:12:38;;;;;;;6.85;3.55;;;;;;;;;;5101370;28;20209;-85
2021/12/31 01:15:09;;;;;;;4.05;3.20;;;;;;;;;;5104663;28;20172;-84
2021/12/31 01:20:18;;;;;;;4.20;2.90;;;;;;;;;;5111780;28;20203;-85
2021/12/31 01:22:44;;;;;;;4.60;3.53;;;;;;;;;;5091723;28;20183;-86
2021/12/31 01:25:16;;;;;;;8.95;4.03;;;;;;;;;;5105822;28;20387;-85
2021/12/31 01:27:42;;;;;;;4.30;3.90;;;;;;;;;;5106906;28;20445;-85
2021/12/31 01:30:12;;;;;;;4.05;3.33;;;;;;;;;;5106287;28;20740;-86
2021/12/31 01:32:38;;;;;;;3.40;2.95;;;;;;;;;;5096828;28;20245;-87
2021/12/31 01:35:04;;;;;;;3.28;2.85;;;;;;;;;;5093763;28;20253;-86
2021/12/31 01:37:30;;;;;;;3.78;3.47;;;;;;;;;;5100940;28;20207;-86
2021/12/31 01:39:56;;;;;;;8.90;4.32;;;;;;;;;;5108643;28;20248;-85
2021/12/31 01:42:32;;;;;;;5.47;4.55;;;;;;;;;;5093396;28;20176;-85
2021/12/31 01:45:02;;;;;;;6.00;4.80;;;;;;;;;;5096870;28;20182;-86
2021/12/31 01:47:45;;;;;;;5.72;4.10;;;;;;;;;;5110980;28;20171;-86
2021/12/31 01:50:11;;;;;;;6.75;3.92;;;;;;;;;;5096041;28;20179;-86
2021/12/31 01:52:40;;;;;;;6.15;3.33;;;;;;;;;;5095558;28;20191;-85
2021/12/31 01:55:08;;;;;;;4.43;3.85;;;;;;;;;;5107162;28;20187;-85
2021/12/31 01:57:35;;;;;;;4.53;3.25;;;;;;;;;;5103808;28;20179;-86
2021/12/31 02:00:01;;;;;;;4.50;3.30;;;;;;;;;;5103005;28;20201;-86
2021/12/31 02:02:27;;;;;;;5.13;2.45;;;;;;;;;;5116031;28;20183;-86
2021/12/31 02:04:53;;;;;;;3.63;3.33;;;;;;;;;;5098200;28;20179;-86
2021/12/31 02:07:19;;;;;;;8.52;3.13;;;;;;;;;;5105370;28;20190;-86
2021/12/31 02:09:49;;;;;;;5.68;2.45;;;;;;;;;;5119880;28;20179;-86
2021/12/31 02:12:17;;;;;;;2.83;2.42;;;;;;;;;;5093573;28;20172;-86
2021/12/31 02:14:43;;;;;;;4.68;2.50;;;;;;;;;;5095726;28;20252;-87
2021/12/31 02:17:09;;;;;;;3.55;2.50;;;;;;;;;;5110570;28;20692;-87
2021/12/31 02:19:35;;;;;;;3.17;2.88;;;;;;;;;;5100010;28;20275;-86
2021/12/31 02:22:01;;;;;;;3.53;2.60;;;;;;;;;;5104790;28;20184;-87
2021/12/31 02:24:27;;;;;;;5.38;2.92;;;;;;;;;;5096645;28;20176;-88
2021/12/31 02:26:53;;;;;;;5.03;2.42;;;;;;;;;;5107240;28;20186;-87
2021/12/31 02:29:24;;;;;;;3.20;2.90;;;;;;;;;;5101781;28;20183;-87
2021/12/31 02:31:50;;;;;;;3.53;3.00;;;;;;;;;;5095787;28;20490;-87
2021/12/31 02:34:16;;;;;;;4.70;2.95;;;;;;;;;;5093793;28;20191;-87
2021/12/31 02:36:42;;;;;;;5.30;4.18;;;;;;;;;;5098588;28;20183;-87
2021/12/31 02:39:08;;;;;;;4.45;3.35;;;;;;;;;;5095436;28;20203;-87
2021/12/31 02:41:35;;;;;;;3.30;3.00;;;;;;;;;;5111537;28;20255;-86
2021/12/31 02:44:01;;;;;;;5.05;3.05;;;;;;;;;;5095385;28;20183;-87
2021/12/31 02:46:27;;;;;;;4.40;3.15;;;;;;;;;;5108380;28;20659;-87
2021/12/31 02:48:56;;;;;;;4.25;3.53;;;;;;;;;;5090026;28;20312;-87
2021/12/31 02:51:22;;;;;;;6.55;2.60;;;;;;;;;;5109086;28;20283;-87
2021/12/31 02:53:51;;;;;;;4.38;2.30;;;;;;;;;;5092904;28;20588;-87
2021/12/31 02:56:18;;;;;;;5.05;2.70;;;;;;;;;;5096820;28;20187;-88
2021/12/31 02:58:44;;;;;;;2.70;2.50;;;;;;;;;;5108193;28;20204;-87
2021/12/31 03:01:10;;;;;;;3.13;2.58;;;;;;;;;;5105094;28;20174;-87
2021/12/31 03:03:36;;;;;;;2.60;2.17;;;;;;;;;;5091802;28;20239;-87
2021/12/31 03:06:03;;;;;;;2.63;2.40;;;;;;;;;;5094634;28;20504;-89
2021/12/31 03:08:31;;;;;;;3.33;2.70;;;;;;;;;;5096444;28;20245;-88
2021/12/31 03:10:57;;;;;;;3.13;2.13;;;;;;;;;;5105969;28;20194;-87
2021/12/31 03:13:23;;;;;;;2.47;2.28;;;;;;;;;;5104841;28;20190;-87
2021/12/31 03:15:51;;;;;;;5.57;3.53;;;;;;;;;;5103572;28;20171;-88
2021/12/31 03:18:18;;;;;;;2.80;2.45;;;;;;;;;;5090940;28;20223;-88
2021/12/31 03:20:57;;;;;;;2.95;2.40;;;;;;;;;;5100898;28;20183;-88
2021/12/31 03:23:24;;;;;;;2.85;2.55;;;;;;;;;;5117801;27;20278;-88
2021/12/31 03:25:50;;;;;;;3.38;2.45;;;;;;;;;;5090370;28;20262;-88
2021/12/31 03:28:16;;;;;;;2.28;2.03;;;;;;;;;;5087719;28;20200;-88
2021/12/31 03:30:42;;;;;;;2.83;2.37;;;;;;;;;;5089968;28;20171;-87
2021/12/31 03:33:08;;;;;;;3.17;2.00;;;;;;;;;;5089097;28;20449;-88
2021/12/31 03:35:34;;;;;;;4.00;2.57;;;;;;;;;;5098407;28;20176;-89
2021/12/31 03:38:00;;;;;;;4.50;2.28;;;;;;;;;;5094249;28;20437;-89
2021/12/31 03:40:26;;;;;;;6.18;2.38;;;;;;;;;;5108401;28;20201;-89
2021/12/31 03:42:52;;;;;;;2.60;2.10;;;;;;;;;;5089573;28;20168;-88
2021/12/31 03:45:18;;;;;;;4.00;2.10;;;;;;;;;;5100143;28;20874;-89
2021/12/31 03:47:44;;;;;;;2.53;2.30;;;;;;;;;;5106162;27;20436;-88
2021/12/31 03:50:10;;;;;;;5.20;3.08;;;;;;;;;;5125359;27;20183;-89
2021/12/31 03:52:39;;;;;;;2.72;2.53;;;;;;;;;;5093757;28;20183;-88
2021/12/31 03:55:07;;;;;;;2.65;2.42;;;;;;;;;;5104458;28;20180;-89
2021/12/31 03:57:33;;;;;;;2.75;2.45;;;;;;;;;;5108411;28;20179;-90
2021/12/31 03:59:59;;;;;;;3.58;2.75;;;;;;;;;;5100920;28;20228;-89
2021/12/31 04:02:25;;;;;;;2.70;2.10;;;;;;;;;;5099935;28;20202;-89
2021/12/31 04:04:51;;;;;;;2.80;2.60;;;;;;;;;;5094019;28;20191;-88
2021/12/31 04:07:17;;;;;;;2.47;2.20;;;;;;;;;;5104152;28;20493;-88
2021/12/31 04:09:43;;;;;;;2.67;2.08;;;;;;;;;;5089553;28;20180;-89
2021/12/31 04:12:09;;;;;;;2.33;1.83;;;;;;;;;;5094219;28;20174;-89
2021/12/31 04:14:35;;;;;;;3.40;2.00;;;;;;;;;;5109577;28;20441;-89
2021/12/31 04:17:01;;;;;;;2.40;2.20;;;;;;;;;;5093462;28;20230;-89
2021/12/31 04:19:27;;;;;;;2.45;2.25;;;;;;;;;;5095532;28;20242;-89
2021/12/31 04:21:53;;;;;;;2.70;2.27;;;;;;;;;;5088614;28;20176;-88
2021/12/31 04:24:52;;;;;;;2.25;1.80;;;;;;;;;;5090953;28;20417;-89
2021/12/31 04:27:14;;;;;;;2.83;2.20;;;;;;;;;;5107723;28;20211;-89
2021/12/31 04:29:40;;;;;;;2.83;1.85;;;;;;;;;;5094400;28;20179;-89
2021/12/31 04:32:07;;;;;;;2.47;2.10;;;;;;;;;;5109831;28;20176;-89
2021/12/31 04:34:33;;;;;;;2.38;2.10;;;;;;;;;;5107866;28;20736;-90
2021/12/31 04:36:59;;;;;;;2.75;2.45;;;;;;;;;;5110150;28;20539;-89
2021/12/31 04:39:25;;;;;;;2.50;2.10;;;;;;;;;;5109344;28;20200;-90
2021/12/31 04:41:54;;;;;;;2.53;2.22;;;;;;;;;;5093659;28;20776;-89
2021/12/31 04:44:20;;;;;;;1.83;1.70;;;;;;;;;;5109092;28;20179;-89
2021/12/31 04:46:46;;;;;;;2.15;2.00;;;;;;;;;;5094171;28;20179;-90
2021/12/31 04:49:11;;;;;;;2.60;2.13;;;;;;;;;;5087739;28;20203;-89
2021/12/31 04:51:37;;;;;;;3.13;2.17;;;;;;;;;;5090679;28;20429;-89
2021/12/31 04:54:03;;;;;;;3.65;1.73;;;;;;;;;;5093639;28;20442;-87
2021/12/31 04:56:29;;;;;;;3.17;2.40;;;;;;;;;;5109358;28;20191;-89
2021/12/31 04:58:55;;;;;;;2.28;2.03;;;;;;;;;;5093164;28;20229;-88
2021/12/31 05:01:21;;;;;;;3.10;2.20;;;;;;;;;;5092693;28;20182;-89
2021/12/31 05:03:51;;;;;;;2.50;2.15;;;;;;;;;;5106566;28;20481;-89
2021/12/31 05:06:17;;;;;;;2.25;1.50;;;;;;;;;;5094306;28;20194;-88
2021/12/31 05:08:43;;;;;;;2.40;1.88;;;;;;;;;;5114532;28;20184;-87
2021/12/31 05:11:09;;;;;;;2.58;2.30;;;;;;;;;;5093380;28;20183;-88
2021/12/31 05:13:35;;;;;;;2.70;2.45;;;;;;;;;;5104179;28;20273;-89
2021/12/31 05:16:03;;;;;;;3.35;2.05;;;;;;;;;;5105202;28;20202;-88
2021/12/31 05:18:30;;;;;;;2.08;1.83;;;;;;;;;;5090468;28;20219;-89
2021/12/31 05:20:56;;;;;;;2.00;1.77;;;;;;;;;;5108488;28;20202;-89
2021/12/31 05:23:22;;;;;;;2.15;1.75;;;;;;;;;;5094050;28;20202;-89
2021/12/31 05:25:48;;;;;;;2.30;2.10;;;;;;;;;;5108250;28;20183;-88
2021/12/31 05:28:14;;;;;;;4.25;2.17;;;;;;;;;;5087472;28;20261;-88
2021/12/31 05:30:40;;;;;;;3.50;1.97;;;;;;;;;;5112912;28;20230;-87
2021/12/31 05:33:06;;;;;;;4.10;1.90;;;;;;;;;;5091492;28;20421;-88
2021/12/31 05:35:32;;;;;;;1.88;1.52;;;;;;;;;;5108931;28;20178;-88
2021/12/31 05:37:58;;;;;;;3.03;1.60;;;;;;;;;;5108890;28;20190;-88
2021/12/31 05:40:25;;;;;;;3.58;1.80;;;;;;;;;;5092775;28;20195;-88
2021/12/31 05:42:53;;;;;;;1.95;1.75;;;;;;;;;;5105894;28;20261;-88
2021/12/31 05:45:19;;;;;;;2.13;1.92;;;;;;;;;;5112304;28;20180;-88
2021/12/31 05:47:47;;;;;;;1.73;1.63;;;;;;;;;;5111585;28;20672;-88
2021/12/31 05:50:27;;;;;;;2.13;1.50;;;;;;;;;;5096816;28;20175;-88
2021/12/31 05:52:54;;;;;;;9.77;2.28;;;;;;;;;;5112292;28;20238;-89
2021/12/31 05:55:20;;;;;;;1.90;1.80;;;;;;;;;;5091552;28;20649;-89
2021/12/31 05:57:46;;;;;;;2.47;2.08;;;;;;;;;;5091824;28;20190;-89
2021/12/31 06:00:12;;;;;;;2.33;1.97;;;;;;;;;;5122105;28;20203;-89
2021/12/31 06:02:38;;;;;;;3.80;2.33;;;;;;;;;;5100734;28;20469;-89
2021/12/31 06:05:04;;;;;;;5.75;2.00;;;;;;;;;;5096750;28;20176;-89
2021/12/31 06:07:30;;;;;;;3.00;1.85;;;;;;;;;;5091745;28;20191;-88
2021/12/31 06:09:56;;;;;;;4.17;2.00;;;;;;;;;;5105574;28;20183;-89
2021/12/31 06:12:23;;;;;;;2.38;2.17;;;;;;;;;;5093160;28;20460;-88
2021/12/31 06:14:50;;;;;;;2.58;1.98;;;;;;;;;;5103736;28;20183;-88
2021/12/31 06:17:22;;;;;;;3.05;1.90;;;;;;;;;;5098439;28;20250;-88
2021/12/31 06:19:48;;;;;;;8.20;2.10;;;;;;;;;;5095277;28;20207;-88
2021/12/31 06:22:15;;;;;;;4.45;2.42;;;;;;;;;;5085622;28;20264;-88
2021/12/31 06:24:42;;;;;;;2.15;1.90;;;;;;;;;;5072495;28;20172;-88
2021/12/31 06:27:08;;;;;;;2.38;1.98;;;;;;;;;;5081701;28;20191;-88
2021/12/31 06:29:34;;;;;;;3.67;2.88;;;;;;;;;;5075834;28;20192;-87
2021/12/31 06:32:00;;;;;;;6.05;2.65;;;;;;;;;;5090678;28;20203;-87
2021/12/31 06:34:26;;;;;;;3.33;2.17;;;;;;;;;;5094171;28;20184;-88
2021/12/31 06:36:52;;;;;;;3.20;1.97;;;;;;;;;;5102687;28;20179;-88
2021/12/31 06:39:18;;;;;;;3.30;2.10;;;;;;;;;;5090315;28;20458;-88
2021/12/31 06:41:44;;;;;;;2.72;2.53;;;;;;;;;;5075815;28;20181;-87
2021/12/31 06:44:10;;;;;;;4.38;2.38;;;;;;;;;;5087579;28;20184;-87
2021/12/31 06:46:36;;;;;;;3.30;2.58;;;;;;;;;;5098446;28;20190;-87
2021/12/31 06:49:02;;;;;;;5.63;2.58;;;;;;;;;;5068754;28;20180;-89
2021/12/31 06:51:28;;;;;;;3.10;1.97;;;;;;;;;;5089296;28;20267;-90
2021/12/31 06:53:54;;;;;;;3.80;2.10;;;;;;;;;;5091710;28;20463;-89
2021/12/31 06:56:20;;;;;;;3.05;2.00;;;;;;;;;;5102785;28;20442;-88
2021/12/31 06:58:45;;;;;;;3.83;2.73;;;;;;;;;;5072665;28;20219;-89
2021/12/31 07:01:11;;;;;;;4.75;2.08;;;;;;;;;;5085747;28;20438;-88
2021/12/31 07:03:37;;;;;;;2.80;2.07;;;;;;;;;;5111141;28;20190;-89
2021/12/31 07:06:03;;;;;;;4.87;2.50;;;;;;;;;;5086402;28;20489;-88
2021/12/31 07:08:29;;;;;;;3.38;2.35;;;;;;;;;;5094805;28;20443;-89
2021/12/31 07:10:55;;;;;;;2.83;2.58;;;;;;;;;;5075441;28;20198;-89
2021/12/31 07:13:21;;;;;;;3.60;2.60;;;;;;;;;;5100728;28;20216;-88
2021/12/31 07:15:50;;;;;;;2.05;1.85;;;;;;;;;;5085626;28;20171;-89
2021/12/31 07:18:16;;;;;;;2.90;2.10;;;;;;;;;;5072152;28;20220;-86
2021/12/31 07:20:42;;;;;;;2.72;2.38;;;;;;;;;;5089913;28;20181;-84
2021/12/31 07:23:11;;;;;;;4.38;2.20;;;;;;;;;;5096521;28;20218;-87
2021/12/31 07:25:40;;;;;;;4.07;2.53;;;;;;;;;;5073607;28;20580;-85
2021/12/31 07:28:07;;;;;;;4.60;2.22;;;;;;;;;;5071385;28;20195;-88
2021/12/31 07:30:33;;;;;;;5.68;2.63;;;;;;;;;;5083351;28;20168;-88
2021/12/31 07:32:59;;;;;;;2.30;2.10;;;;;;;;;;5081237;28;20222;-86
2021/12/31 07:35:25;;;;;;;2.47;1.83;;;;;;;;;;5080164;28;20168;-86
2021/12/31 07:37:56;;;;;;;2.60;2.40;;;;;;;;;;5073258;28;20194;-86
2021/12/31 07:40:39;;;;;;;3.95;2.53;;;;;;;;;;5073731;28;20279;-88
2021/12/31 07:43:06;;;;;;;2.90;2.53;;;;;;;;;;5067272;28;20187;-84
2021/12/31 07:45:32;;;;;;;3.13;2.45;;;;;;;;;;5100696;28;20260;-84
2021/12/31 07:47:59;;;;;;;3.58;2.90;;;;;;;;;;5085393;28;20180;-86
2021/12/31 07:50:25;;;;;;;3.60;2.65;;;;;;;;;;5099701;28;20209;-86
2021/12/31 07:52:51;;;;;;;4.10;2.63;;;;;;;;;;5078341;28;20188;-85
2021/12/31 07:55:17;;;;;;;2.53;2.10;;;;;;;;;;5085160;28;20799;-87
2021/12/31 07:57:43;;;;;;;3.85;2.28;;;;;;;;;;5095248;28;20184;-86
2021/12/31 08:00:10;;;;;;;5.40;2.20;;;;;;;;;;5087742;28;20204;-87
2021/12/31 08:02:35;;;;;;;3.28;2.38;;;;;;;;;;5091930;28;20437;-86
2021/12/31 08:05:01;;;;;;;2.60;2.07;;;;;;;;;;5116800;28;20184;-87
2021/12/31 08:07:28;;;;;;;2.80;2.25;;;;;;;;;;5098750;28;20549;-88
2021/12/31 08:09:54;;;;;;;6.40;3.08;;;;;;;;;;5085385;28;20172;-87
2021/12/31 08:12:20;;;;;;;3.50;2.73;;;;;;;;;;5093703;28;20194;-88
2021/12/31 08:14:46;;;;;;;3.55;2.50;;;;;;;;;;5086661;28;20464;-88
2021/12/31 08:17:12;;;;;;;3.05;1.85;;;;;;;;;;5083758;28;20270;-88
2021/12/31 08:19:38;;;;;;;5.80;2.67;;;;;;;;;;5087696;28;20207;-88
2021/12/31 08:22:05;;;;;;;3.30;2.50;;;;;;;;;;5099056;28;20459;-88
2021/12/31 08:24:31;;;;;;;5.43;2.47;;;;;;;;;;5089365;28;20201;-89
2021/12/31 08:26:57;;;;;;;2.60;2.40;;;;;;;;;;5106139;28;20442;-89
2021/12/31 08:29:23;;;;;;;3.67;2.13;;;;;;;;;;5078311;28;20430;-89
2021/12/31 08:31:49;;;;;;;3.07;2.13;;;;;;;;;;5082545;28;20190;-87
2021/12/31 08:34:15;;;;;;;4.13;2.50;;;;;;;;;;5102084;28;20476;-89
2021/12/31 08:36:40;;;;;;;2.80;2.50;;;;;;;;;;5068743;28;20457;-88
2021/12/31 08:39:08;;;;;;;4.07;2.50;;;;;;;;;;5071409;28;20481;-91
2021/12/31 08:41:38;;;;;;;3.20;2.08;;;;;;;;;;5074112;28;20180;-88
2021/12/31 08:44:04;;;;;;;3.88;2.35;;;;;;;;;;5093818;28;20177;-89
2021/12/31 08:46:31;;;;;;;3.25;2.70;;;;;;;;;;5086731;28;20173;-90
2021/12/31 08:48:57;;;;;;;3.15;2.40;;;;;;;;;;5073727;28;20190;-84
2021/12/31 08:51:24;;;;;;;2.35;2.10;;;;;;;;;;5086673;28;20188;-89
2021/12/31 08:53:50;;;;;;;3.20;2.58;;;;;;;;;;5093191;28;20181;-87
2021/12/31 08:56:16;;;;;;;5.93;2.72;;;;;;;;;;5084750;28;20188;-89
2021/12/31 08:58:41;;;;;;;7.47;2.17;;;;;;;;;;5068926;28;20286;-87
2021/12/31 09:01:07;;;;;;;3.67;2.53;;;;;;;;;;5104749;28;20434;-86
2021/12/31 09:03:33;;;;;;;4.95;2.92;;;;;;;;;;5087273;28;20446;-87
2021/12/31 09:05:59;;;;;;;2.42;2.22;;;;;;;;;;5086274;28;20184;-90
2021/12/31 09:08:25;;;;;;;3.70;2.50;;;;;;;;;;5075841;28;20191;-89
2021/12/31 09:10:51;;;;;;;2.90;2.40;;;;;;;;;;5080307;28;20476;-92
2021/12/31 09:13:17;;;;;;;3.67;2.45;;;;;;;;;;5070661;28;20434;-87
2021/12/31 09:15:44;;;;;;;3.70;2.30;;;;;;;;;;5090399;28;20391;-89
2021/12/31 09:18:10;;;;;;;3.38;2.28;;;;;;;;;;5091400;28;20224;-89
2021/12/31 09:20:36;;;;;;;4.05;2.17;;;;;;;;;;5083648;28;20179;-89
2021/12/31 09:23:02;;;;;;;4.45;2.60;;;;;;;;;;5077644;28;20195;-88
2021/12/31 09:25:28;;;;;;;3.63;2.50;;;;;;;;;;5101220;28;20279;-89
2021/12/31 09:27:54;;;;;;;3.00;2.70;;;;;;;;;;5071519;28;20164;-89
2021/12/31 09:30:20;;;;;;;4.45;2.05;;;;;;;;;;5090391;28;20748;-88
2021/12/31 09:32:46;;;;;;;5.32;2.70;;;;;;;;;;5097988;28;20184;-87
2021/12/31 09:35:12;;;;;;;2.92;2.65;;;;;;;;;;5087104;28;20207;-91
2021/12/31 09:37:39;;;;;;;2.35;2.03;;;;;;;;;;5084797;28;20188;-86
2021/12/31 09:40:05;;;;;;;3.35;2.58;;;;;;;;;;5085472;28;20204;-88
2021/12/31 09:42:31;;;;;;;3.33;3.00;;;;;;;;;;5096902;28;20201;-88
2021/12/31 09:44:57;;;;;;;3.95;2.70;;;;;;;;;;5084709;28;20184;-88
2021/12/31 09:47:23;;;;;;;2.57;2.27;;;;;;;;;;5095365;28;20176;-88
2021/12/31 09:49:49;;;;;;;3.75;2.40;;;;;;;;;;5078959;28;20532;-90
2021/12/31 09:52:16;;;;;;;2.88;2.67;;;;;;;;;;5071623;28;20188;-93
2021/12/31 09:54:43;;;;;;;6.07;3.72;;;;;;;;;;5101935;28;20262;-88
2021/12/31 09:57:13;;;;;;;3.13;2.80;;;;;;;;;;5091251;28;20176;-92
2021/12/31 09:59:42;;;;;;;4.03;2.83;;;;;;;;;;5091093;28;20204;-91
2021/12/31 10:02:09;;;;;;;3.55;2.55;;;;;;;;;;5091686;28;20181;-90
2021/12/31 10:04:54;;;;;;;3.00;2.45;;;;;;;;;;5090196;28;20172;-92
2021/12/31 10:07:21;;;;;;;2.60;2.40;;;;;;;;;;5088712;28;20189;-91
2021/12/31 10:10:08;;;;;;;2.70;2.40;;;;;;;;;;5071172;28;20184;-90
2021/12/31 10:12:47;;;;;;;3.10;2.22;;;;;;;;;;5074161;28;20255;-89
2021/12/31 10:15:13;;;;;;;2.58;2.38;;;;;;;;;;5079919;28;20180;-89
2021/12/31 10:17:39;;;;;;;3.67;2.80;;;;;;;;;;5075599;28;20216;-90
2021/12/31 10:20:05;;;;;;;2.30;2.10;;;;;;;;;;5090647;28;20692;-86
2021/12/31 10:22:31;;;;;;;3.42;2.78;;;;;;;;;;5073892;28;20520;-91
2021/12/31 10:24:58;;;;;;;3.60;2.50;;;;;;;;;;5069526;28;20183;-93
2021/12/31 10:27:25;;;;;;;3.17;2.88;;;;;;;;;;5083355;28;20169;-87
2021/12/31 10:29:59;;;;;;;2.30;2.10;;;;;;;;;;5079291;28;20196;-89
2021/12/31 10:32:34;;;;;;;2.10;1.90;;;;;;;;;;5082649;28;20186;-88
2021/12/31 10:35:10;;;;;;;3.25;1.80;;;;;;;;;;5084745;28;20188;-90
2021/12/31 10:37:43;;;;;;;3.67;2.38;;;;;;;;;;5074506;28;20187;-89
2021/12/31 10:40:10;;;;;;;3.35;2.13;;;;;;;;;;5085201;28;20211;-86
2021/12/31 10:42:37;;;;;;;2.90;2.63;;;;;;;;;;5100464;28;20200;-90
2021/12/31 10:45:05;;;;;;;2.08;1.98;;;;;;;;;;5082789;28;20190;-86
2021/12/31 10:47:37;;;;;;;2.35;2.15;;;;;;;;;;5094340;28;20268;-90
2021/12/31 10:50:03;;;;;;;3.65;2.58;;;;;;;;;;5090013;28;20193;-90
2021/12/31 10:52:35;;;;;;;2.90;1.80;;;;;;;;;;5072604;28;20318;-90
2021/12/31 10:55:03;;;;;;;4.25;2.45;;;;;;;;;;5069347;28;20808;-86
2021/12/31 10:57:37;;;;;;;3.75;2.78;;;;;;;;;;5084518;28;20195;-89
2021/12/31 11:00:05;;;;;;;3.13;2.53;;;;;;;;;;5081342;28;20208;-86
2021/12/31 11:02:32;;;;;;;2.35;2.15;;;;;;;;;;5079698;28;20198;-88
2021/12/31 11:04:59;;;;;;;3.00;2.70;;;;;;;;;;5075350;28;20180;-89
2021/12/31 11:07:25;;;;;;;2.13;1.92;;;;;;;;;;5070735;28;20191;-91
2021/12/31 11:09:57;;;;;;;2.25;2.05;;;;;;;;;;5087709;28;20191;-90
2021/12/31 11:12:24;;;;;;;2.90;2.08;;;;;;;;;;5089961;28;20169;-93
2021/12/31 11:14:54;;;;;;;3.70;3.05;;;;;;;;;;5074712;28;20196;-89
2021/12/31 11:17:20;;;;;;;3.00;2.45;;;;;;;;;;5074102;28;20236;-89
2021/12/31 11:19:49;;;;;;;3.25;2.03;;;;;;;;;;5074878;28;20212;-89
2021/12/31 11:22:16;;;;;;;3.30;2.53;;;;;;;;;;5069667;28;20649;-90
2021/12/31 11:24:43;;;;;;;3.25;2.25;;;;;;;;;;5083295;28;20183;-88
2021/12/31 11:27:29;;;;;;;2.72;2.00;;;;;;;;;;5090787;28;20240;-86
2021/12/31 11:29:56;;;;;;;1.90;1.70;;;;;;;;;;5073477;28;20192;-88
2021/12/31 11:32:41;;;;;;;6.03;2.38;;;;;;;;;;5074547;28;20199;-88
2021/12/31 11:35:27;;;;;;;2.65;2.10;;;;;;;;;;5073720;28;20187;-89
2021/12/31 11:37:54;;;;;;;2.45;2.25;;;;;;;;;;5074291;28;20624;-87
2021/12/31 11:40:27;;;;;;;2.28;2.08;;;;;;;;;;5086563;28;20204;-89
2021/12/31 11:43:12;;;;;;;8.32;2.85;;;;;;;;;;5069328;28;20172;-84
2021/12/31 11:45:38;;;;;;;2.97;2.60;;;;;;;;;;5087105;28;20179;-87
2021/12/31 11:48:27;;;;;;;2.33;2.13;;;;;;;;;;5088084;28;20184;-92
2021/12/31 11:51:04;;;;;;;4.65;2.33;;;;;;;;;;5089405;28;20437;-88
2021/12/31 11:53:30;;;;;;;6.93;2.15;;;;;;;;;;5073973;28;20192;-87
2021/12/31 11:55:56;;;;;;;4.38;2.10;;;;;;;;;;5095616;28;20242;-87
2021/12/31 11:58:40;;;;;;;1.92;1.70;;;;;;;;;;5080705;28;20181;-87
2021/12/31 12:01:25;;;;;;;2.55;2.33;;;;;;;;;;5072253;28;20196;-86
2021/12/31 12:04:11;;;;;;;2.63;2.15;;;;;;;;;;5097252;28;20192;-86
2021/12/31 12:06:56;;;;;;;2.20;2.00;;;;;;;;;;5095536;28;20205;-83
2021/12/31 12:09:37;;;;;;;2.63;2.03;;;;;;;;;;5081313;28;20184;-88
2021/12/31 12:12:04;;;;;;;3.03;2.72;;;;;;;;;;5082238;28;20188;-88
2021/12/31 12:14:40;;;;;;;2.33;2.13;;;;;;;;;;5077798;28;20185;-86
2021/12/31 12:17:07;;;;;;;3.67;2.10;;;;;;;;;;5092243;28;20244;-86
2021/12/31 12:19:46;;;;;;;3.35;2.00;;;;;;;;;;5067148;28;20202;-88
2021/12/31 12:22:37;;;;;;;2.35;2.00;;;;;;;;;;5069595;28;20191;-86
2021/12/31 12:25:06;;;;;;;6.70;2.40;;;;;;;;;;5081990;28;20191;-85
2021/12/31 12:27:32;;;;;;;2.40;2.03;;;;;;;;;;5082666;28;20174;-87
2021/12/31 12:30:00;;;;;;;2.95;2.00;;;;;;;;;;5097978;28;20210;-87
2021/12/31 12:34:56;;;;;;;3.38;2.70;;;;;;;;;;5095814;28;20223;-87
2021/12/31 12:37:28;;;;;;;4.88;2.05;;;;;;;;;;5096356;28;20196;-86
2021/12/31 12:39:58;;;;;;;2.90;2.00;;;;;;;;;;5086315;28;20204;-87
2021/12/31 12:42:24;;;;;;;3.60;1.90;;;;;;;;;;5090944;28;20179;-87
2021/12/31 12:45:06;;;;;;;3.38;1.85;;;;;;;;;;5086830;28;20205;-86
2021/12/31 12:47:32;;;;;;;2.90;2.00;;;;;;;;;;5096534;28;20201;-86
2021/12/31 12:49:59;;;;;;;3.45;2.08;;;;;;;;;;5085875;28;20260;-86
2021/12/31 12:52:26;;;;;;;3.58;2.30;;;;;;;;;;5099936;28;20273;-87
2021/12/31 12:55:08;;;;;;;2.30;2.10;;;;;;;;;;5085944;28;20185;-86
2021/12/31 12:57:34;;;;;;;3.80;2.35;;;;;;;;;;5120300;28;20339;-86
2021/12/31 13:00:00;;;;;;;2.30;1.70;;;;;;;;;;5078053;28;20386;-86
2021/12/31 13:02:42;;;;;;;4.70;2.40;;;;;;;;;;5077052;28;20915;-89
2021/12/31 13:05:09;;;;;;;4.85;2.55;;;;;;;;;;5092252;28;20464;-87
2021/12/31 13:07:38;;;;;;;3.65;2.55;;;;;;;;;;5102088;28;20276;-89
2021/12/31 13:10:08;;;;;;;5.55;2.45;;;;;;;;;;5091852;28;20195;-87
2021/12/31 13:12:36;;;;;;;3.92;2.15;;;;;;;;;;5090865;28;20175;-86
2021/12/31 13:15:03;;;;;;;5.30;2.70;;;;;;;;;;5097205;28;20187;-85
2021/12/31 13:17:32;;;;;;;3.38;2.03;;;;;;;;;;5098091;28;20686;-84
2021/12/31 13:20:09;;;;;;;3.72;2.40;;;;;;;;;;5109621;28;20206;-83
2021/12/31 13:22:36;;;;;;;3.17;2.05;;;;;;;;;;5108637;27;20191;-86
2021/12/31 13:25:02;;;;;;;3.13;2.17;;;;;;;;;;5125728;27;20186;-84
2021/12/31 13:27:30;;;;;;;3.35;2.60;;;;;;;;;;5116370;27;20170;-85
2021/12/31 13:30:11;;;;;;;2.90;2.20;;;;;;;;;;5095694;28;20195;-88
2021/12/31 13:32:38;;;;;;;6.68;2.40;;;;;;;;;;5094834;28;20660;-86
2021/12/31 13:35:06;;;;;;;5.13;2.00;;;;;;;;;;5096820;28;20197;-85
2021/12/31 13:37:42;;;;;;;2.65;2.28;;;;;;;;;;5092084;28;20433;-86
2021/12/31 13:40:11;;;;;;;2.90;1.95;;;;;;;;;;5105553;28;20268;-85
2021/12/31 13:42:44;;;;;;;4.53;2.55;;;;;;;;;;5118698;28;20159;-86
2021/12/31 13:45:21;;;;;;;3.13;2.20;;;;;;;;;;5100357;28;20179;-85
2021/12/31 13:47:47;;;;;;;3.35;2.15;;;;;;;;;;5124174;27;20188;-83
2021/12/31 13:50:13;;;;;;;3.05;2.75;;;;;;;;;;5111238;28;20190;-84
2021/12/31 13:52:50;;;;;;;5.40;2.20;;;;;;;;;;5105549;28;20251;-88
2021/12/31 13:55:23;;;;;;;5.22;2.85;;;;;;;;;;5126217;27;20202;-86
2021/12/31 13:57:53;;;;;;;6.07;2.50;;;;;;;;;;5122592;28;20646;-83
2021/12/31 14:00:23;;;;;;;3.22;2.65;;;;;;;;;;5101348;27;20223;-85
2021/12/31 14:02:49;;;;;;;3.28;2.28;;;;;;;;;;5103717;27;20177;-83
2021/12/31 14:05:17;;;;;;;4.40;2.50;;;;;;;;;;5106191;28;20179;-85
2021/12/31 14:08:00;;;;;;;4.13;2.78;;;;;;;;;;5110601;27;20999;-84
2021/12/31 14:10:33;;;;;;;2.97;2.67;;;;;;;;;;5116870;28;20178;-84
2021/12/31 14:13:01;;;;;;;3.15;2.50;;;;;;;;;;5092003;28;20178;-85
2021/12/31 14:15:28;;;;;;;2.83;2.38;;;;;;;;;;5106664;28;20199;-83
2021/12/31 14:17:55;;;;;;;4.30;2.63;;;;;;;;;;5101960;27;20333;-86
2021/12/31 14:20:24;;;;;;;4.57;2.30;;;;;;;;;;5109012;28;20203;-83
2021/12/31 14:22:53;;;;;;;2.67;2.47;;;;;;;;;;5095059;28;20203;-82
2021/12/31 14:25:20;;;;;;;7.13;2.67;;;;;;;;;;5102028;28;20187;-84
2021/12/31 14:27:46;;;;;;;5.13;2.38;;;;;;;;;;5121638;28;20175;-83
2021/12/31 14:30:12;;;;;;;6.30;2.77;;;;;;;;;;5111175;28;20199;-82
2021/12/31 14:32:39;;;;;;;3.17;2.50;;;;;;;;;;5124066;27;20455;-84
2021/12/31 14:35:06;;;;;;;4.65;2.55;;;;;;;;;;5128054;27;20187;-84
2021/12/31 14:37:32;;;;;;;3.90;2.25;;;;;;;;;;5116790;27;20190;-84
2021/12/31 14:40:00;;;;;;;5.35;2.30;;;;;;;;;;5103338;28;20199;-83
2021/12/31 14:42:28;;;;;;;3.03;2.20;;;;;;;;;;5106404;28;20655;-84
2021/12/31 14:44:54;;;;;;;4.38;2.90;;;;;;;;;;5116621;28;20209;-85
2021/12/31 14:47:20;;;;;;;3.30;2.47;;;;;;;;;;5102543;28;20182;-83
2021/12/31 14:49:46;;;;;;;5.32;2.83;;;;;;;;;;5102122;28;20197;-84
2021/12/31 14:52:13;;;;;;;5.53;2.38;;;;;;;;;;5121288;28;20194;-83
2021/12/31 14:54:39;;;;;;;3.60;2.40;;;;;;;;;;5100629;28;20182;-86